Terminal Aerodrome Forecast
Issued by NWS

Home | Current Version | Previous Version | Graphics & Text | Print | Product List | Glossary On
Versions: 1 2 3 4 5 6 7 8 9 10 11 12 13 14
689
FTUS43 KUNR 171720
TAFGCC
TAF
KGCC 171720Z 1718/1818 30010KT P6SM SKC
     FM180200 16009KT P6SM BKN100
     FM181100 22018G30KT P6SM BKN150=

USA.gov is the U.S. government's official web portal to all federal, state and local government web resources and services.